Campbell-Corsicana Municipal, TX

2:46 PM CDT on August 22, 2014 (GMT -0500)
Midlothian | Change Station
CLOSE
Current Station
Airport
Location: Midlothian,
Elevation: 712 ft
Nearby Weather Stations

Elev 712 ft 32.46 °N, 96.91 °W | Updated 11 minutes ago

Clear
Clear
96 °F
Feels Like 96 °F
N
13
Wind Variable Wind from South
Gusts 16 mph

Today
High -- | Low -- °F
--% Chance of Precip.
Yesterday
High -- | Low -- °F
Precip. -- in
6:54 AM 8:01 PM
Waning Crescent, 7% visible
Pressure 30.03 in
Visibility 10.0 miles
Clouds Clear
Heat Index 96 °F
Dew Point 60 °F
Humidity 30%
Rainfall 0.00 in
Snow Depth Not available.
UV 11 out of 12
Pollen 7.90 out of 12
Air Quality Not available.
Flu Activity Not available.
METAR KJWY 221935Z AUTO 18011G14KT 10SM CLR 36/16 A3003 RMK AO2 T03560156

More Conditions Fewer Conditions

Pressure 30.03 in
Visibility 10.0 miles
Clouds Clear
Heat Index 96 °F
Dew Point 60 °F
Humidity 30%
Rainfall 0.00 in
Snow Depth Not available.
UV 11 out of 12
Pollen 7.90 out of 12
Air Quality Not available.
Flu Activity Not available.
METAR KJWY 221935Z AUTO 18011G14KT 10SM CLR 36/16 A3003 RMK AO2 T03560156

More Conditions Fewer Conditions

10-Day Weather Forecast

Almanac

Astronomy

Aug. 22, 2014 Rise Set
Actual Time 6:54 AM CDT 8:01 PM CDT
Civil Twilight 6:29 AM CDT 8:27 PM CDT
Nautical Twilight 5:59 AM CDT 8:57 PM CDT
Astronomical Twilight 5:27 AM CDT 9:28 PM CDT
Moon 4:22 AM CDT 6:07 PM CDT
Length of Visible Light 13h 57m
Length of Day
13h 07m
Tomorrow will be 1m 47s shorter.
Waning Crescent, 7% of the Moon is Illuminated
Today
Waning Crescent
Aug 25
New
Sep 2
First Quarter
Sep 8
Full
Sep 15
Last Quarter

Today's Extremes

State Highs State Lows

Community

WunderPhotos

Upload Photos

1,746,227 photos uploaded!

Nearby

Snow Depth

Station Depth Elevation
No new snow has been reported.

Earthquake Activity

City Distance Mag. Time & Date
No recent earthquake activity has been reported nearby.
Minimum magnitude displayed is 2.5.

Coastal Water Temperatures

Place Temperature
No Stations Reporting

Nearby Weather Stations